Terminal Aerodrome Forecast
Issued by NWS Albany, NY

Home | Current Version | Previous Version | Text Only | Print | Product List | Glossary On
Versions: 1 2 3 4 5 6 7 8 9 10 11 12 13 14 15 16 17 18
000
FTUS41 KALY 051142
TAFPOU
TAF
KPOU 051142Z 0512/0612 00000KT P6SM BKN100
     FM051400 34008KT P6SM SCT080 SCT250
     FM051800 01007KT P6SM BKN250
     FM060300 00000KT P6SM BKN100 OVC250
     FM060900 00000KT 6SM -SHRA BKN050 OVC080=

USA.gov is the U.S. government's official web portal to all federal, state and local government web resources and services.